Time;durP1;ratioP1;P1;durP2;ratioP2;P2;SDS_P1;SDS_P2;PMS_P1;PMS_P2;Temp;Humidity;BMP_temperature;BMP_pressure;BME280_temperature;BME280_humidity;BME280_pressure;Samples;Min_cycle;Max_cycle;Signal;HPM_P1;HPM_P2
2021/10/10 00:01:47;;;;;;;27.00;11.45;;;;;;;;;;4964649;28;20043;-59
2021/10/10 00:04:12;;;;;;;36.17;12.93;;;;;;;;;;4979171;28;20049;-59
2021/10/10 00:06:40;;;;;;;36.08;12.85;;;;;;;;;;4965666;28;20039;-59
2021/10/10 00:09:06;;;;;;;35.00;12.75;;;;;;;;;;4963033;28;20165;-59
2021/10/10 00:11:31;;;;;;;35.70;12.95;;;;;;;;;;4978759;28;20030;-59
2021/10/10 00:13:57;;;;;;;30.65;12.88;;;;;;;;;;4963216;28;20996;-59
2021/10/10 00:16:22;;;;;;;29.63;12.13;;;;;;;;;;4961078;28;20034;-59
2021/10/10 00:18:48;;;;;;;27.73;12.63;;;;;;;;;;4979718;28;20042;-58
2021/10/10 00:21:14;;;;;;;32.58;14.43;;;;;;;;;;4965734;28;20061;-59
2021/10/10 00:23:42;;;;;;;29.70;13.57;;;;;;;;;;4959996;28;20065;-59
2021/10/10 00:26:07;;;;;;;28.65;14.65;;;;;;;;;;4967201;28;20034;-60
2021/10/10 00:28:33;;;;;;;33.60;14.90;;;;;;;;;;4976462;28;20033;-59
2021/10/10 00:30:59;;;;;;;26.20;12.48;;;;;;;;;;4964693;28;20030;-59
2021/10/10 00:33:25;;;;;;;27.98;13.57;;;;;;;;;;4978852;28;20081;-59
2021/10/10 00:35:50;;;;;;;27.95;13.48;;;;;;;;;;4965039;28;20058;-58
2021/10/10 00:38:16;;;;;;;27.95;13.40;;;;;;;;;;4981441;28;20121;-59
2021/10/10 00:40:42;;;;;;;27.70;13.32;;;;;;;;;;4963267;28;20032;-59
2021/10/10 00:43:08;;;;;;;28.95;13.57;;;;;;;;;;4979225;28;20034;-59
2021/10/10 00:45:33;;;;;;;28.67;13.32;;;;;;;;;;4967491;28;20031;-59
2021/10/10 00:47:59;;;;;;;28.30;13.18;;;;;;;;;;4968674;28;20023;-59
2021/10/10 00:50:25;;;;;;;30.38;13.90;;;;;;;;;;4970863;28;20045;-59
2021/10/10 00:52:52;;;;;;;24.20;13.48;;;;;;;;;;4967515;28;20031;-59
2021/10/10 00:55:20;;;;;;;30.92;12.88;;;;;;;;;;4968865;28;20049;-59
2021/10/10 00:57:47;;;;;;;35.15;13.90;;;;;;;;;;4965966;28;20026;-59
2021/10/10 01:00:13;;;;;;;28.63;13.48;;;;;;;;;;4983107;28;20034;-59
2021/10/10 01:02:40;;;;;;;36.35;13.50;;;;;;;;;;4982276;28;20029;-60
2021/10/10 01:05:06;;;;;;;23.10;11.70;;;;;;;;;;4969856;28;20031;-59
2021/10/10 01:07:32;;;;;;;27.25;12.30;;;;;;;;;;4965987;28;20026;-59
2021/10/10 01:09:59;;;;;;;26.27;13.02;;;;;;;;;;4982611;28;20169;-59
2021/10/10 01:12:25;;;;;;;32.03;13.68;;;;;;;;;;4965755;28;20047;-60
2021/10/10 01:14:51;;;;;;;25.85;12.60;;;;;;;;;;4968586;28;20038;-59
2021/10/10 01:17:20;;;;;;;25.95;12.80;;;;;;;;;;4967327;28;20030;-58
2021/10/10 01:19:49;;;;;;;27.75;12.80;;;;;;;;;;4982408;28;20851;-59
2021/10/10 01:22:15;;;;;;;28.00;13.07;;;;;;;;;;4968431;28;20122;-59
2021/10/10 01:24:41;;;;;;;28.40;12.77;;;;;;;;;;4970482;28;20905;-59
2021/10/10 01:27:06;;;;;;;25.50;11.73;;;;;;;;;;4965821;28;20043;-60
2021/10/10 01:29:34;;;;;;;28.65;12.45;;;;;;;;;;4966155;28;20031;-58
2021/10/10 01:32:00;;;;;;;22.73;11.90;;;;;;;;;;4982352;28;20134;-58
2021/10/10 01:34:25;;;;;;;26.13;11.93;;;;;;;;;;4965999;28;20034;-58
2021/10/10 01:36:51;;;;;;;27.83;12.55;;;;;;;;;;4970693;28;20062;-59
2021/10/10 01:39:16;;;;;;;28.33;13.75;;;;;;;;;;4982427;28;20097;-58
2021/10/10 01:41:43;;;;;;;36.85;13.43;;;;;;;;;;4960920;28;20243;-58
2021/10/10 01:44:16;;;;;;;28.70;12.65;;;;;;;;;;4964863;28;20913;-59
2021/10/10 01:46:42;;;;;;;28.42;13.00;;;;;;;;;;4948760;28;20703;-58
2021/10/10 01:49:08;;;;;;;35.97;12.77;;;;;;;;;;4963146;28;20026;-59
2021/10/10 01:51:37;;;;;;;33.63;13.65;;;;;;;;;;4967278;28;21931;-58
2021/10/10 01:54:03;;;;;;;23.42;11.27;;;;;;;;;;4968763;28;20026;-59
2021/10/10 01:56:29;;;;;;;28.63;12.65;;;;;;;;;;4962196;28;20045;-59
2021/10/10 01:58:54;;;;;;;23.80;11.23;;;;;;;;;;4981472;28;20034;-59
2021/10/10 02:01:20;;;;;;;22.30;11.70;;;;;;;;;;4981817;28;20037;-59
2021/10/10 02:03:48;;;;;;;31.55;13.73;;;;;;;;;;4966401;28;20564;-59
2021/10/10 02:06:14;;;;;;;32.10;12.35;;;;;;;;;;4981740;28;20039;-60
2021/10/10 02:08:39;;;;;;;24.60;10.45;;;;;;;;;;4980036;28;20120;-60
2021/10/10 02:11:05;;;;;;;22.50;12.52;;;;;;;;;;4980968;28;20045;-59
2021/10/10 02:13:31;;;;;;;29.63;12.27;;;;;;;;;;4963576;28;20046;-59
2021/10/10 02:15:57;;;;;;;25.25;11.43;;;;;;;;;;4948843;28;20915;-60
2021/10/10 02:18:22;;;;;;;26.08;11.77;;;;;;;;;;4982841;28;20648;-59
2021/10/10 02:20:49;;;;;;;29.80;12.50;;;;;;;;;;4964498;28;20026;-59
2021/10/10 02:23:14;;;;;;;30.02;13.30;;;;;;;;;;4966834;28;20533;-59
2021/10/10 02:25:40;;;;;;;33.40;13.50;;;;;;;;;;4951407;28;20046;-59
2021/10/10 02:28:05;;;;;;;25.92;12.57;;;;;;;;;;4950520;28;20670;-60
2021/10/10 02:30:36;;;;;;;21.17;11.15;;;;;;;;;;4965044;28;20722;-60
2021/10/10 02:33:04;;;;;;;31.52;11.85;;;;;;;;;;4979520;28;22124;-59
2021/10/10 02:35:29;;;;;;;31.60;11.60;;;;;;;;;;4968712;28;20026;-60
2021/10/10 02:37:55;;;;;;;30.38;13.32;;;;;;;;;;4966561;28;20034;-59
2021/10/10 02:40:21;;;;;;;23.35;11.30;;;;;;;;;;4965104;28;20042;-60
2021/10/10 02:42:46;;;;;;;27.25;10.48;;;;;;;;;;4980869;28;20081;-60
2021/10/10 02:45:12;;;;;;;21.55;9.38;;;;;;;;;;4962258;28;20042;-60
2021/10/10 02:47:37;;;;;;;23.45;11.80;;;;;;;;;;4967141;28;20033;-60
2021/10/10 02:50:06;;;;;;;27.75;12.63;;;;;;;;;;4964735;28;20034;-60
2021/10/10 02:52:32;;;;;;;24.83;11.57;;;;;;;;;;4965911;28;20033;-60
2021/10/10 02:55:00;;;;;;;23.50;11.77;;;;;;;;;;4962943;28;20030;-60
2021/10/10 02:57:25;;;;;;;23.45;10.90;;;;;;;;;;4961711;28;20076;-60
2021/10/10 02:59:54;;;;;;;21.52;9.70;;;;;;;;;;4980726;28;20046;-60
2021/10/10 03:02:22;;;;;;;24.10;11.27;;;;;;;;;;4980608;28;20033;-60
2021/10/10 03:04:48;;;;;;;22.17;10.63;;;;;;;;;;4979581;28;20038;-60
2021/10/10 03:07:15;;;;;;;27.75;10.90;;;;;;;;;;4968235;28;20501;-60
2021/10/10 03:09:41;;;;;;;21.98;11.13;;;;;;;;;;4979332;28;20093;-60
2021/10/10 03:12:09;;;;;;;19.85;9.98;;;;;;;;;;4965687;28;20149;-60
2021/10/10 03:14:34;;;;;;;20.33;10.27;;;;;;;;;;4950684;28;20045;-60
2021/10/10 03:17:00;;;;;;;19.65;9.70;;;;;;;;;;4978233;28;20030;-60
2021/10/10 03:19:25;;;;;;;20.35;9.85;;;;;;;;;;4965548;28;20664;-60
2021/10/10 03:21:53;;;;;;;20.95;9.77;;;;;;;;;;4965272;28;20037;-60
2021/10/10 03:24:19;;;;;;;18.95;10.75;;;;;;;;;;4980228;28;20409;-60
2021/10/10 03:26:46;;;;;;;23.42;10.50;;;;;;;;;;4979678;28;20089;-59
2021/10/10 03:29:12;;;;;;;21.05;9.27;;;;;;;;;;4979894;28;20077;-60
2021/10/10 03:31:37;;;;;;;22.85;9.80;;;;;;;;;;4961447;28;20034;-60
2021/10/10 03:34:03;;;;;;;21.08;8.95;;;;;;;;;;4979674;28;20043;-60
2021/10/10 03:36:28;;;;;;;17.83;9.02;;;;;;;;;;4962696;28;20603;-60
2021/10/10 03:38:58;;;;;;;16.27;8.57;;;;;;;;;;4961075;28;20046;-60
2021/10/10 03:41:27;;;;;;;15.85;9.50;;;;;;;;;;4951314;28;20076;-60
2021/10/10 03:43:55;;;;;;;17.92;8.32;;;;;;;;;;4979647;28;20038;-60
2021/10/10 03:46:20;;;;;;;18.67;9.02;;;;;;;;;;4965271;28;20551;-60
2021/10/10 03:48:46;;;;;;;28.85;11.88;;;;;;;;;;4965300;28;20027;-60
2021/10/10 03:51:12;;;;;;;19.38;9.73;;;;;;;;;;4977975;28;20031;-61
2021/10/10 03:54:11;;;;;;;21.67;11.05;;;;;;;;;;4962900;28;20742;-60
2021/10/10 03:56:31;;;;;;;20.70;10.55;;;;;;;;;;4963049;28;20062;-60
2021/10/10 03:58:56;;;;;;;26.20;11.43;;;;;;;;;;4946223;28;20087;-60
2021/10/10 04:01:26;;;;;;;25.73;10.57;;;;;;;;;;4978497;28;20030;-60
2021/10/10 04:03:54;;;;;;;20.00;10.00;;;;;;;;;;4950606;28;20062;-59
2021/10/10 04:06:20;;;;;;;19.05;9.27;;;;;;;;;;4993634;28;20073;-59
2021/10/10 04:08:45;;;;;;;24.92;10.30;;;;;;;;;;4963831;28;20046;-59
2021/10/10 04:11:11;;;;;;;24.80;10.55;;;;;;;;;;4949040;28;20018;-59
2021/10/10 04:13:39;;;;;;;17.55;9.45;;;;;;;;;;4960941;28;20055;-61
2021/10/10 04:16:06;;;;;;;16.58;9.00;;;;;;;;;;4978873;28;20930;-59
2021/10/10 04:18:33;;;;;;;19.20;9.10;;;;;;;;;;4979447;28;20049;-60
2021/10/10 04:20:59;;;;;;;21.10;9.18;;;;;;;;;;4947398;28;20045;-59
2021/10/10 04:23:27;;;;;;;15.05;8.88;;;;;;;;;;4975416;28;20038;-59
2021/10/10 04:25:54;;;;;;;19.75;9.55;;;;;;;;;;4961570;28;20037;-59
2021/10/10 04:28:20;;;;;;;18.33;9.07;;;;;;;;;;4946635;28;21436;-59
2021/10/10 04:30:45;;;;;;;15.40;8.35;;;;;;;;;;4964354;28;20034;-59
2021/10/10 04:33:13;;;;;;;20.35;9.95;;;;;;;;;;4962211;28;20042;-59
2021/10/10 04:35:39;;;;;;;19.70;10.10;;;;;;;;;;4947144;28;20036;-59
2021/10/10 04:38:04;;;;;;;19.30;9.70;;;;;;;;;;4961728;28;20027;-59
2021/10/10 04:40:32;;;;;;;18.73;8.35;;;;;;;;;;4965964;28;20962;-59
2021/10/10 04:42:57;;;;;;;25.60;9.98;;;;;;;;;;4977066;28;20100;-61
2021/10/10 04:45:23;;;;;;;21.00;11.35;;;;;;;;;;4965002;28;21395;-59
2021/10/10 04:47:48;;;;;;;19.77;10.35;;;;;;;;;;4949900;28;21102;-59
2021/10/10 04:50:16;;;;;;;19.55;10.50;;;;;;;;;;4960869;28;20919;-60
2021/10/10 04:52:46;;;;;;;22.60;10.07;;;;;;;;;;4974504;28;20034;-60
2021/10/10 04:55:12;;;;;;;24.58;10.13;;;;;;;;;;4960056;28;20042;-60
2021/10/10 04:57:38;;;;;;;27.48;11.07;;;;;;;;;;4977513;28;20038;-60
2021/10/10 05:00:04;;;;;;;27.52;10.68;;;;;;;;;;4980123;28;20045;-60
2021/10/10 05:02:29;;;;;;;20.35;9.65;;;;;;;;;;4980484;28;20097;-61
2021/10/10 05:04:55;;;;;;;18.52;9.65;;;;;;;;;;4963734;28;20483;-59
2021/10/10 05:07:20;;;;;;;14.85;8.73;;;;;;;;;;4978112;28;20105;-60
2021/10/10 05:09:50;;;;;;;20.10;11.10;;;;;;;;;;4962878;28;20034;-60
2021/10/10 05:12:16;;;;;;;19.88;9.63;;;;;;;;;;4964544;28;20026;-60
2021/10/10 05:14:42;;;;;;;20.35;9.30;;;;;;;;;;4962337;28;20689;-60
2021/10/10 05:17:10;;;;;;;22.65;9.20;;;;;;;;;;4961395;28;20066;-60
2021/10/10 05:19:36;;;;;;;19.45;9.57;;;;;;;;;;4948833;28;21907;-60
2021/10/10 05:22:02;;;;;;;22.55;10.32;;;;;;;;;;4961073;28;20041;-60
2021/10/10 05:24:27;;;;;;;22.45;10.43;;;;;;;;;;4944249;28;20039;-59
2021/10/10 05:26:53;;;;;;;19.75;9.90;;;;;;;;;;4976610;28;20030;-59
2021/10/10 05:29:21;;;;;;;23.00;9.32;;;;;;;;;;4977567;28;20037;-59
2021/10/10 05:31:49;;;;;;;23.83;11.00;;;;;;;;;;4962550;28;20034;-59
2021/10/10 05:34:14;;;;;;;27.00;11.02;;;;;;;;;;4983346;28;20014;-59
2021/10/10 05:36:42;;;;;;;20.10;9.85;;;;;;;;;;4965812;28;20475;-60
2021/10/10 05:39:08;;;;;;;20.30;10.82;;;;;;;;;;4963472;28;20034;-59
2021/10/10 05:41:38;;;;;;;18.40;9.60;;;;;;;;;;4965234;28;20050;-60
2021/10/10 05:44:08;;;;;;;20.50;9.13;;;;;;;;;;4949770;28;20042;-60
2021/10/10 05:46:36;;;;;;;21.88;10.18;;;;;;;;;;4979496;28;20387;-63
2021/10/10 05:49:02;;;;;;;21.40;10.05;;;;;;;;;;4979888;28;20030;-60
2021/10/10 05:51:27;;;;;;;24.75;10.27;;;;;;;;;;4979253;28;20587;-60
2021/10/10 05:53:52;;;;;;;23.30;10.93;;;;;;;;;;4965942;28;20058;-59
2021/10/10 05:56:18;;;;;;;25.38;10.52;;;;;;;;;;4980413;28;20042;-61
2021/10/10 05:58:45;;;;;;;20.27;10.95;;;;;;;;;;4976872;28;20110;-59
2021/10/10 06:01:13;;;;;;;24.85;11.52;;;;;;;;;;4968206;28;20034;-61
2021/10/10 06:03:40;;;;;;;19.90;10.10;;;;;;;;;;4979690;28;20652;-60
2021/10/10 06:06:08;;;;;;;20.75;10.68;;;;;;;;;;4979033;28;20045;-60
2021/10/10 06:08:34;;;;;;;22.27;10.70;;;;;;;;;;4980468;28;20045;-60
2021/10/10 06:11:00;;;;;;;19.75;10.63;;;;;;;;;;4964807;28;20062;-60
2021/10/10 06:13:25;;;;;;;19.83;11.23;;;;;;;;;;4967029;28;20524;-60
2021/10/10 06:15:51;;;;;;;23.73;11.85;;;;;;;;;;4979554;28;20058;-60
2021/10/10 06:18:19;;;;;;;26.90;11.70;;;;;;;;;;4947616;28;20180;-60
2021/10/10 06:20:47;;;;;;;21.52;11.60;;;;;;;;;;4979476;28;20038;-60
2021/10/10 06:23:15;;;;;;;28.00;12.52;;;;;;;;;;4981123;28;20073;-60
2021/10/10 06:25:41;;;;;;;22.70;11.85;;;;;;;;;;4980338;28;20060;-60
2021/10/10 06:28:07;;;;;;;22.15;11.68;;;;;;;;;;4966337;28;20030;-60
2021/10/10 06:30:33;;;;;;;26.92;11.90;;;;;;;;;;4980459;28;20100;-61
2021/10/10 06:33:03;;;;;;;23.98;11.82;;;;;;;;;;4978260;28;20092;-59
2021/10/10 06:35:31;;;;;;;25.65;12.05;;;;;;;;;;4964601;28;20038;-59
2021/10/10 06:37:59;;;;;;;24.48;12.20;;;;;;;;;;4979570;28;20041;-60
2021/10/10 06:40:27;;;;;;;25.58;12.00;;;;;;;;;;4965751;28;20043;-60
2021/10/10 06:42:52;;;;;;;31.23;12.48;;;;;;;;;;4966195;28;20070;-60
2021/10/10 06:45:18;;;;;;;24.08;11.88;;;;;;;;;;4967169;28;20249;-60
2021/10/10 06:47:48;;;;;;;21.48;10.30;;;;;;;;;;4963355;28;20041;-60
2021/10/10 06:50:14;;;;;;;20.70;11.05;;;;;;;;;;4977318;28;20129;-60
2021/10/10 06:52:42;;;;;;;19.88;11.38;;;;;;;;;;4964434;28;20042;-60
2021/10/10 06:55:08;;;;;;;23.50;11.27;;;;;;;;;;4961699;28;20034;-60
2021/10/10 06:57:33;;;;;;;25.35;11.20;;;;;;;;;;4977847;28;20045;-60
2021/10/10 07:00:00;;;;;;;26.05;11.05;;;;;;;;;;4949200;28;20113;-60
2021/10/10 07:02:29;;;;;;;20.05;10.75;;;;;;;;;;4962451;28;20155;-61
2021/10/10 07:04:55;;;;;;;24.38;10.95;;;;;;;;;;4964871;28;20038;-61
2021/10/10 07:07:24;;;;;;;19.63;11.55;;;;;;;;;;4963631;28;21161;-61
2021/10/10 07:09:51;;;;;;;20.38;10.43;;;;;;;;;;4964983;28;20041;-61
2021/10/10 07:12:19;;;;;;;25.15;9.75;;;;;;;;;;4978690;28;22447;-60
2021/10/10 07:14:50;;;;;;;18.17;10.52;;;;;;;;;;4963985;28;20044;-61
2021/10/10 07:17:16;;;;;;;21.25;10.68;;;;;;;;;;4977297;28;20093;-61
2021/10/10 07:19:51;;;;;;;21.70;10.40;;;;;;;;;;4965143;28;20033;-61
2021/10/10 07:22:44;;;;;;;23.08;10.38;;;;;;;;;;4967159;28;20046;-60
2021/10/10 07:25:12;;;;;;;23.00;10.00;;;;;;;;;;4964424;28;20046;-61
2021/10/10 07:27:42;;;;;;;20.38;9.57;;;;;;;;;;4978506;28;20026;-61
2021/10/10 07:30:11;;;;;;;17.50;10.15;;;;;;;;;;4964025;28;20038;-60
2021/10/10 07:32:38;;;;;;;21.98;10.48;;;;;;;;;;4961666;28;20032;-59
2021/10/10 07:35:04;;;;;;;17.27;9.88;;;;;;;;;;4960880;28;22475;-59
2021/10/10 07:37:30;;;;;;;17.02;10.32;;;;;;;;;;4977018;28;20022;-60
2021/10/10 07:39:57;;;;;;;18.00;10.18;;;;;;;;;;4963937;28;20986;-59
2021/10/10 07:42:23;;;;;;;19.63;9.77;;;;;;;;;;4964346;28;20021;-60
2021/10/10 07:44:51;;;;;;;20.35;9.70;;;;;;;;;;4979200;28;20030;-60
2021/10/10 07:49:48;;;;;;;17.20;9.10;;;;;;;;;;4978911;28;20690;-61
2021/10/10 07:52:16;;;;;;;20.05;9.93;;;;;;;;;;4977789;28;20031;-60
2021/10/10 07:54:44;;;;;;;18.02;9.43;;;;;;;;;;4959723;28;20386;-59
2021/10/10 07:57:14;;;;;;;16.30;9.25;;;;;;;;;;4964925;28;20031;-60
2021/10/10 07:59:44;;;;;;;18.20;10.05;;;;;;;;;;4977250;28;20051;-60
2021/10/10 08:02:12;;;;;;;18.27;9.60;;;;;;;;;;4979415;28;20154;-60
2021/10/10 08:04:40;;;;;;;20.90;10.63;;;;;;;;;;4962385;28;20030;-60
2021/10/10 08:07:09;;;;;;;16.20;9.73;;;;;;;;;;4962819;28;20030;-60
2021/10/10 08:09:36;;;;;;;21.27;10.23;;;;;;;;;;4963320;28;20092;-60
2021/10/10 08:12:05;;;;;;;23.40;10.57;;;;;;;;;;4976760;28;20035;-61
2021/10/10 08:14:31;;;;;;;20.90;10.57;;;;;;;;;;4958024;28;20050;-62
2021/10/10 08:16:56;;;;;;;19.73;10.43;;;;;;;;;;4960154;28;20133;-61
2021/10/10 08:19:22;;;;;;;23.13;10.60;;;;;;;;;;4947750;28;20871;-62
2021/10/10 08:21:49;;;;;;;18.98;11.38;;;;;;;;;;4961592;28;20042;-62
2021/10/10 08:24:18;;;;;;;18.73;8.73;;;;;;;;;;4963215;28;20041;-61
2021/10/10 08:26:47;;;;;;;20.42;10.30;;;;;;;;;;4947819;28;20038;-60
2021/10/10 08:29:16;;;;;;;16.33;8.85;;;;;;;;;;4961457;28;20053;-61
2021/10/10 08:31:42;;;;;;;22.25;10.00;;;;;;;;;;4975634;28;20034;-60
2021/10/10 08:34:07;;;;;;;19.23;9.95;;;;;;;;;;4978310;28;20026;-60
2021/10/10 08:36:37;;;;;;;19.90;9.90;;;;;;;;;;4963877;28;20613;-60
2021/10/10 08:39:05;;;;;;;22.42;9.75;;;;;;;;;;4962513;28;20049;-60
2021/10/10 08:41:34;;;;;;;20.42;10.20;;;;;;;;;;4959938;28;20047;-61
2021/10/10 08:44:02;;;;;;;19.45;10.07;;;;;;;;;;4961078;28;20035;-61
2021/10/10 08:46:29;;;;;;;17.83;9.63;;;;;;;;;;4964070;28;20836;-61
2021/10/10 08:48:54;;;;;;;19.02;10.60;;;;;;;;;;4962526;28;20030;-61
2021/10/10 08:51:21;;;;;;;20.70;9.90;;;;;;;;;;4976586;28;20019;-60
2021/10/10 08:53:47;;;;;;;20.73;9.85;;;;;;;;;;4965845;28;20038;-61
2021/10/10 08:56:12;;;;;;;18.00;9.75;;;;;;;;;;4960325;28;20186;-59
2021/10/10 08:58:41;;;;;;;18.33;9.95;;;;;;;;;;4978621;28;20069;-61
2021/10/10 09:01:14;;;;;;;19.77;10.75;;;;;;;;;;4963554;28;20037;-61
2021/10/10 09:03:45;;;;;;;23.30;10.17;;;;;;;;;;4964542;28;20317;-60
2021/10/10 09:06:11;;;;;;;19.17;10.48;;;;;;;;;;4961569;28;20026;-60
2021/10/10 09:08:37;;;;;;;22.55;10.52;;;;;;;;;;4965825;28;21111;-62
2021/10/10 09:11:05;;;;;;;19.98;10.52;;;;;;;;;;4966430;28;20664;-62
2021/10/10 09:13:31;;;;;;;20.38;11.60;;;;;;;;;;4965745;28;20042;-62
2021/10/10 09:15:57;;;;;;;21.52;11.00;;;;;;;;;;4966605;28;20042;-60
2021/10/10 09:18:33;;;;;;;17.58;10.13;;;;;;;;;;4971455;28;20030;-61
2021/10/10 09:21:12;;;;;;;19.92;10.10;;;;;;;;;;4979348;28;20169;-60
2021/10/10 09:23:39;;;;;;;21.05;10.60;;;;;;;;;;4965864;28;20045;-60
2021/10/10 09:26:05;;;;;;;18.00;9.82;;;;;;;;;;4980572;28;20037;-60
2021/10/10 09:28:34;;;;;;;19.98;10.10;;;;;;;;;;4963985;28;22094;-61
2021/10/10 09:31:04;;;;;;;15.88;9.00;;;;;;;;;;4963568;28;20371;-60
2021/10/10 09:33:45;;;;;;;15.85;9.80;;;;;;;;;;4965335;28;20042;-62
2021/10/10 09:36:19;;;;;;;17.02;9.52;;;;;;;;;;4963374;28;20031;-62
2021/10/10 09:38:58;;;;;;;16.80;9.18;;;;;;;;;;4980962;28;20031;-60
2021/10/10 09:41:35;;;;;;;17.08;9.60;;;;;;;;;;4962803;28;20038;-60
2021/10/10 09:44:37;;;;;;;18.85;9.93;;;;;;;;;;4980528;28;21067;-62
2021/10/10 09:47:05;;;;;;;19.90;9.02;;;;;;;;;;4963276;28;20026;-60
2021/10/10 09:49:32;;;;;;;21.98;9.38;;;;;;;;;;4965286;28;20121;-61
2021/10/10 09:52:07;;;;;;;17.77;10.05;;;;;;;;;;4967903;28;20685;-60
2021/10/10 09:54:48;;;;;;;20.48;9.43;;;;;;;;;;4966683;28;20034;-60
2021/10/10 09:57:18;;;;;;;20.48;10.75;;;;;;;;;;4964645;28;20218;-61
2021/10/10 09:59:44;;;;;;;19.88;9.32;;;;;;;;;;4963940;28;20058;-60
2021/10/10 10:02:09;;;;;;;15.63;8.88;;;;;;;;;;4961249;28;20033;-59
2021/10/10 10:04:45;;;;;;;16.73;9.88;;;;;;;;;;4981129;28;20097;-60
2021/10/10 10:07:20;;;;;;;15.63;10.25;;;;;;;;;;4966931;28;20050;-62
2021/10/10 10:09:53;;;;;;;23.25;9.65;;;;;;;;;;4950236;28;20057;-62
2021/10/10 10:12:22;;;;;;;19.30;9.85;;;;;;;;;;4978549;28;20532;-62
2021/10/10 10:14:52;;;;;;;19.55;9.73;;;;;;;;;;4965974;28;20574;-60
2021/10/10 10:17:22;;;;;;;19.50;10.15;;;;;;;;;;4948321;28;20604;-61
2021/10/10 10:19:53;;;;;;;20.88;9.82;;;;;;;;;;4965630;28;20145;-61
2021/10/10 10:22:20;;;;;;;18.73;10.23;;;;;;;;;;4976698;28;20069;-61
2021/10/10 10:24:46;;;;;;;15.90;9.70;;;;;;;;;;4968674;28;20045;-60
2021/10/10 10:27:14;;;;;;;16.67;10.55;;;;;;;;;;4978697;28;20117;-61
2021/10/10 10:29:42;;;;;;;15.80;9.70;;;;;;;;;;4977987;28;20512;-61
2021/10/10 10:32:14;;;;;;;17.67;9.77;;;;;;;;;;4972594;28;21104;-61
2021/10/10 10:34:55;;;;;;;17.55;9.93;;;;;;;;;;4979600;28;20046;-62
2021/10/10 10:37:43;;;;;;;17.40;10.57;;;;;;;;;;4964670;28;20026;-61
2021/10/10 10:40:14;;;;;;;18.42;10.63;;;;;;;;;;4980640;28;20058;-61
2021/10/10 10:42:41;;;;;;;18.13;10.02;;;;;;;;;;4979963;28;20128;-61
2021/10/10 10:45:26;;;;;;;16.90;10.15;;;;;;;;;;4979543;28;20114;-60
2021/10/10 10:47:53;;;;;;;20.35;10.95;;;;;;;;;;4964261;28;21285;-61
2021/10/10 10:50:20;;;;;;;15.18;9.77;;;;;;;;;;4962485;28;20662;-61
2021/10/10 10:52:54;;;;;;;24.77;11.55;;;;;;;;;;4965494;28;20824;-61
2021/10/10 10:55:22;;;;;;;20.65;11.55;;;;;;;;;;4961146;28;20162;-60
2021/10/10 10:57:57;;;;;;;21.77;11.02;;;;;;;;;;4960572;28;20046;-60
2021/10/10 11:00:31;;;;;;;25.48;10.60;;;;;;;;;;4964009;28;20030;-61
2021/10/10 11:03:07;;;;;;;23.13;11.18;;;;;;;;;;4962384;28;20045;-60
2021/10/10 11:05:40;;;;;;;18.13;10.63;;;;;;;;;;5147815;23;20020;-91
2021/10/10 11:08:35;;;;;;;22.60;11.00;;;;;;;;;;5042009;28;20029;-88
2021/10/10 11:11:07;;;;;;;19.20;10.48;;;;;;;;;;5011190;28;20109;-87
2021/10/10 11:13:58;;;;;;;19.27;10.85;;;;;;;;;;5017475;28;20033;-87
2021/10/10 11:16:45;;;;;;;21.80;11.38;;;;;;;;;;5004918;28;20079;-88
2021/10/10 11:19:21;;;;;;;22.90;11.63;;;;;;;;;;5003503;28;20040;-89
2021/10/10 11:21:47;;;;;;;22.23;11.85;;;;;;;;;;5021145;28;20024;-91
2021/10/10 11:24:22;;;;;;;21.58;12.63;;;;;;;;;;5003291;28;20033;-88
2021/10/10 11:26:51;;;;;;;19.52;13.10;;;;;;;;;;5018875;28;20030;-88
2021/10/10 11:29:27;;;;;;;19.88;12.30;;;;;;;;;;5000736;28;20450;-91
2021/10/10 11:31:54;;;;;;;20.45;12.20;;;;;;;;;;5022332;28;20022;-90
2021/10/10 11:34:28;;;;;;;24.23;12.90;;;;;;;;;;5006959;28;20025;-91
2021/10/10 11:37:11;;;;;;;21.52;11.93;;;;;;;;;;5017522;28;20025;-90
2021/10/10 11:39:47;;;;;;;23.52;12.07;;;;;;;;;;5007848;28;20040;-89
2021/10/10 11:42:14;;;;;;;20.85;12.38;;;;;;;;;;5000083;28;20465;-89
2021/10/10 11:44:51;;;;;;;25.67;12.82;;;;;;;;;;4998396;28;20091;-92
2021/10/10 11:47:34;;;;;;;20.58;12.50;;;;;;;;;;5014685;28;20541;-92
2021/10/10 11:50:10;;;;;;;22.45;13.10;;;;;;;;;;5010832;28;20040;-91
2021/10/10 11:52:46;;;;;;;20.88;11.93;;;;;;;;;;5019377;28;20029;-89
2021/10/10 11:55:27;;;;;;;23.25;11.95;;;;;;;;;;4985971;28;20068;-93
2021/10/10 11:58:15;;;;;;;22.17;12.75;;;;;;;;;;5019752;28;20441;-91
2021/10/10 12:00:41;;;;;;;20.55;12.75;;;;;;;;;;4990161;28;20037;-91
2021/10/10 12:03:22;;;;;;;25.40;13.07;;;;;;;;;;5004488;28;20033;-91
2021/10/10 12:06:03;;;;;;;23.35;12.13;;;;;;;;;;5019067;28;20099;-90
2021/10/10 12:08:29;;;;;;;20.20;12.50;;;;;;;;;;5010043;28;20031;-92
2021/10/10 12:11:06;;;;;;;23.55;13.95;;;;;;;;;;5016472;28;20025;-91
2021/10/10 12:13:58;;;;;;;24.15;14.20;;;;;;;;;;4996105;28;20045;-90
2021/10/10 12:16:28;;;;;;;21.67;13.88;;;;;;;;;;5019797;28;20065;-93
2021/10/10 12:19:00;;;;;;;21.40;12.77;;;;;;;;;;5022926;28;20390;-89
2021/10/10 12:21:27;;;;;;;23.08;13.15;;;;;;;;;;5010167;28;20448;-91
2021/10/10 12:24:09;;;;;;;19.98;13.60;;;;;;;;;;5033021;28;20028;-93
2021/10/10 12:26:45;;;;;;;22.13;13.90;;;;;;;;;;5009273;28;20112;-92
2021/10/10 12:29:31;;;;;;;21.95;13.27;;;;;;;;;;5041787;28;20049;-90
2021/10/10 12:32:20;;;;;;;30.27;14.02;;;;;;;;;;5021471;28;20107;-90
2021/10/10 12:34:48;;;;;;;24.02;12.32;;;;;;;;;;4998429;28;20042;-89
2021/10/10 12:37:20;;;;;;;21.90;13.00;;;;;;;;;;5028409;28;20013;-91
2021/10/10 12:39:53;;;;;;;25.13;13.52;;;;;;;;;;5025538;28;20068;-89
2021/10/10 12:42:24;;;;;;;25.35;13.70;;;;;;;;;;5021926;28;20041;-87
2021/10/10 12:45:05;;;;;;;25.27;14.02;;;;;;;;;;5019823;28;20017;-92
2021/10/10 12:47:34;;;;;;;27.42;15.48;;;;;;;;;;5016674;28;20060;-88
2021/10/10 12:50:00;;;;;;;28.52;14.27;;;;;;;;;;5010996;28;20025;-89
2021/10/10 12:52:44;;;;;;;25.33;14.20;;;;;;;;;;4982037;28;20057;-93
2021/10/10 12:55:46;;;;;;;25.58;13.45;;;;;;;;;;5002609;28;20034;-91
2021/10/10 12:58:17;;;;;;;25.13;13.25;;;;;;;;;;5014261;28;20355;-88
2021/10/10 13:00:46;;;;;;;26.65;13.48;;;;;;;;;;5029924;28;20025;-89
2021/10/10 13:03:39;;;;;;;24.63;12.93;;;;;;;;;;5001570;28;20048;-88
2021/10/10 13:06:11;;;;;;;25.83;13.95;;;;;;;;;;5041198;28;20064;-88
2021/10/10 13:08:50;;;;;;;18.92;13.02;;;;;;;;;;5012641;28;20045;-88
2021/10/10 13:11:23;;;;;;;25.77;14.15;;;;;;;;;;5025214;28;20030;-88
2021/10/10 13:13:49;;;;;;;23.55;13.60;;;;;;;;;;5016866;28;20052;-91
2021/10/10 13:16:15;;;;;;;26.10;15.15;;;;;;;;;;5007768;28;20490;-89
2021/10/10 13:19:14;;;;;;;21.92;13.38;;;;;;;;;;5018926;28;20044;-91
2021/10/10 13:21:39;;;;;;;29.83;14.38;;;;;;;;;;5003344;28;20049;-92
2021/10/10 13:24:08;;;;;;;31.83;15.70;;;;;;;;;;5000920;28;20225;-90
2021/10/10 13:26:34;;;;;;;24.52;14.30;;;;;;;;;;5015135;28;20125;-92
2021/10/10 13:29:00;;;;;;;30.17;15.63;;;;;;;;;;5015594;28;20018;-90
2021/10/10 13:31:34;;;;;;;32.25;15.10;;;;;;;;;;4997183;28;20116;-89
2021/10/10 13:34:00;;;;;;;37.03;15.20;;;;;;;;;;5013181;28;20034;-90
2021/10/10 13:36:26;;;;;;;27.70;13.88;;;;;;;;;;4986234;28;20032;-91
2021/10/10 13:38:55;;;;;;;29.55;14.05;;;;;;;;;;4985008;28;20033;-89
2021/10/10 13:41:21;;;;;;;27.15;14.10;;;;;;;;;;5005329;28;20072;-90
2021/10/10 13:43:47;;;;;;;24.15;13.55;;;;;;;;;;5001116;28;20029;-89
2021/10/10 13:46:17;;;;;;;24.98;13.38;;;;;;;;;;5000714;28;20025;-89
2021/10/10 13:48:43;;;;;;;26.92;14.18;;;;;;;;;;5010378;28;20231;-89
2021/10/10 13:51:09;;;;;;;27.35;14.13;;;;;;;;;;5017393;28;20184;-89
2021/10/10 13:53:42;;;;;;;28.42;14.05;;;;;;;;;;5012102;28;20032;-91
2021/10/10 13:56:08;;;;;;;32.15;15.23;;;;;;;;;;4997465;28;20025;-91
2021/10/10 13:58:33;;;;;;;29.17;14.80;;;;;;;;;;5013799;28;20479;-92
2021/10/10 14:01:03;;;;;;;29.75;14.43;;;;;;;;;;5011862;28;20030;-88
2021/10/10 14:03:32;;;;;;;28.15;14.65;;;;;;;;;;5018613;28;20021;-90
2021/10/10 14:06:05;;;;;;;29.23;14.30;;;;;;;;;;5004465;28;20081;-88
2021/10/10 14:08:33;;;;;;;27.67;13.27;;;;;;;;;;5003021;28;20053;-90
2021/10/10 14:11:18;;;;;;;21.77;13.05;;;;;;;;;;5022313;28;20093;-92
2021/10/10 14:13:59;;;;;;;22.10;13.18;;;;;;;;;;5005136;28;20045;-90
2021/10/10 14:16:36;;;;;;;23.63;13.35;;;;;;;;;;5022668;28;20034;-90
2021/10/10 14:19:09;;;;;;;24.38;13.07;;;;;;;;;;5033620;28;20030;-89
2021/10/10 14:21:36;;;;;;;28.80;14.10;;;;;;;;;;5035565;28;20481;-90
2021/10/10 14:24:02;;;;;;;27.42;13.75;;;;;;;;;;5004364;28;20021;-88
2021/10/10 14:26:38;;;;;;;23.27;13.10;;;;;;;;;;5002723;28;20042;-91
2021/10/10 14:29:07;;;;;;;26.23;13.80;;;;;;;;;;5006479;28;20671;-91
2021/10/10 14:31:35;;;;;;;25.15;13.52;;;;;;;;;;4999259;28;20045;-93
2021/10/10 14:34:01;;;;;;;27.77;13.82;;;;;;;;;;4999038;28;20105;-90
2021/10/10 14:36:43;;;;;;;27.85;15.00;;;;;;;;;;5004760;28;20053;-89